createdAt,value
2023-02-11T00:00:07.659Z,96824.41
2023-02-11T00:03:16.562Z,96825.31
2023-02-11T00:06:28.051Z,96821.47
2023-02-11T00:09:38.929Z,96825.88
2023-02-11T00:12:47.054Z,96822.53
2023-02-11T00:15:56.132Z,96820.13
2023-02-11T00:19:06.680Z,96814.84
2023-02-11T00:22:14.834Z,96815.06
2023-02-11T00:25:24.315Z,96816.34
2023-02-11T00:28:32.779Z,96819.59
2023-02-11T00:31:41.302Z,96821.22
2023-02-11T00:34:53.669Z,96825.13
2023-02-11T00:38:02.354Z,96819.28
2023-02-11T00:41:13.075Z,96810.06
2023-02-11T00:44:21.273Z,96804.00
2023-02-11T00:47:29.485Z,96817.75
2023-02-11T00:50:38.323Z,96811.91
2023-02-11T00:53:46.508Z,96812.97
2023-02-11T00:56:56.493Z,96823.47
2023-02-11T01:00:08.290Z,96812.25
2023-02-11T01:03:16.601Z,96804.25
2023-02-11T01:06:25.200Z,96793.47
2023-02-11T01:09:33.727Z,96793.97
2023-02-11T01:12:43.722Z,96789.84
2023-02-11T01:15:52.338Z,96797.31
2023-02-11T01:19:00.764Z,96791.38
2023-02-11T01:22:09.124Z,96793.53
2023-02-11T01:25:17.689Z,96782.94
2023-02-11T01:28:30.351Z,96787.50
2023-02-11T01:31:41.574Z,96792.28
2023-02-11T01:34:49.824Z,96799.78
2023-02-11T01:37:57.988Z,96791.72
2023-02-11T01:41:10.195Z,96796.97
2023-02-11T01:44:30.787Z,96795.47
2023-02-11T01:47:39.006Z,96785.13
2023-02-11T01:50:51.728Z,96785.25
2023-02-11T01:54:19.644Z,96788.91
2023-02-11T01:57:32.257Z,96788.28
2023-02-11T02:00:43.018Z,96784.72
2023-02-11T02:04:00.553Z,96786.41
2023-02-11T02:07:18.728Z,96784.56
2023-02-11T02:10:30.237Z,96791.66
2023-02-11T02:13:38.918Z,96786.16
2023-02-11T02:16:49.373Z,96777.06
2023-02-11T02:20:33.160Z,96780.44
2023-02-11T02:24:32.364Z,96776.28
2023-02-11T02:27:55.235Z,96771.44
2023-02-11T02:31:31.584Z,96767.06
2023-02-11T02:34:52.480Z,96751.03
2023-02-11T02:38:10.140Z,96752.19
2023-02-11T02:41:23.621Z,96741.63
2023-02-11T02:44:33.279Z,96742.47
2023-02-11T02:47:41.879Z,96736.50
2023-02-11T02:51:13.106Z,96739.22
2023-02-11T02:55:13.116Z,96739.34
2023-02-11T02:58:55.002Z,96745.00
2023-02-11T03:02:19.467Z,96739.88
2023-02-11T03:05:45.065Z,96740.31
2023-02-11T03:09:03.971Z,96744.13
2023-02-11T03:12:14.780Z,96738.03
2023-02-11T03:15:28.113Z,96722.31
2023-02-11T03:18:39.556Z,96719.72
2023-02-11T03:21:51.683Z,96718.19
2023-02-11T03:25:03.712Z,96721.34
2023-02-11T03:28:22.210Z,96720.16
2023-02-11T03:31:41.440Z,96713.78
2023-02-11T03:34:56.663Z,96703.47
2023-02-11T03:38:13.651Z,96703.06
2023-02-11T03:46:56.926Z,96682.50
2023-02-11T03:50:11.815Z,96677.63
2023-02-11T03:53:22.792Z,96683.28
2023-02-11T03:56:40.578Z,96689.13
2023-02-11T03:59:55.382Z,96699.00
2023-02-11T04:03:06.455Z,96705.84
2023-02-11T04:06:15.157Z,96698.47
2023-02-11T04:09:24.090Z,96697.44
2023-02-11T04:12:32.520Z,96693.78
2023-02-11T04:15:40.950Z,96697.19
2023-02-11T04:18:51.118Z,96703.16
2023-02-11T04:21:59.375Z,96714.03
2023-02-11T04:25:09.360Z,96701.56
2023-02-11T04:28:17.649Z,96703.28
2023-02-11T04:31:26.225Z,96699.66
2023-02-11T04:34:36.076Z,96699.84
2023-02-11T04:37:44.381Z,96710.31
2023-02-11T04:40:53.023Z,96733.00
2023-02-11T04:44:01.262Z,96719.31
2023-02-11T04:47:09.449Z,96722.50
2023-02-11T04:50:19.296Z,96717.44
2023-02-11T04:53:27.557Z,96717.94
2023-02-11T04:56:35.794Z,96725.50
2023-02-11T04:59:44.473Z,96729.25
2023-02-11T05:02:52.764Z,96741.84
2023-02-11T05:06:02.743Z,96738.22
2023-02-11T05:09:13.155Z,96738.69
2023-02-11T05:12:21.874Z,96745.09
2023-02-11T05:15:30.864Z,96741.72
2023-02-11T05:18:39.958Z,96751.72
2023-02-11T05:22:01.825Z,96748.19
2023-02-11T05:25:11.557Z,96740.97
2023-02-11T05:28:20.250Z,96737.31
2023-02-11T05:31:28.460Z,96739.59
2023-02-11T05:34:36.664Z,96735.88
2023-02-11T05:37:46.216Z,96731.91
2023-02-11T05:40:54.997Z,96716.59
2023-02-11T05:44:03.278Z,96717.66
2023-02-11T05:47:11.698Z,96717.25
2023-02-11T05:50:20.195Z,96709.78
2023-02-11T05:53:29.905Z,96708.81
2023-02-11T05:56:38.154Z,96701.69
2023-02-11T05:59:46.420Z,96710.16
2023-02-11T06:02:54.774Z,96716.75
2023-02-11T06:06:03.064Z,96716.41
2023-02-11T06:09:12.975Z,96714.41
2023-02-11T06:12:21.164Z,96720.16
2023-02-11T06:15:29.790Z,96705.38
2023-02-11T06:18:38.088Z,96701.56
2023-02-11T06:21:46.292Z,96696.34
2023-02-11T06:25:01.571Z,96692.88
2023-02-11T06:28:10.717Z,96714.88
2023-02-11T06:31:20.529Z,96718.25
2023-02-11T06:34:28.775Z,96724.16
2023-02-11T06:37:37.011Z,96719.16
2023-02-11T06:40:50.536Z,96714.66
2023-02-11T06:43:58.686Z,96718.03
2023-02-11T06:47:07.267Z,96728.22
2023-02-11T06:50:16.339Z,96713.38
2023-02-11T06:53:25.224Z,96708.69
2023-02-11T06:56:36.878Z,96703.53
2023-02-11T06:59:44.984Z,96707.44
2023-02-11T07:02:53.831Z,96706.19
2023-02-11T07:06:03.138Z,96697.28
2023-02-11T07:09:11.318Z,96701.75
2023-02-11T07:12:20.987Z,96705.19
2023-02-11T07:15:29.200Z,96721.28
2023-02-11T07:18:37.632Z,96716.66
2023-02-11T07:21:46.053Z,96715.19
2023-02-11T07:24:54.267Z,96722.00
2023-02-11T07:28:05.071Z,96707.91
2023-02-11T07:31:17.100Z,96707.75
2023-02-11T07:34:25.630Z,96712.41
2023-02-11T07:37:35.905Z,96701.34
2023-02-11T07:40:44.064Z,96687.69
2023-02-11T07:43:54.194Z,96701.75
2023-02-11T07:47:02.393Z,96694.53
2023-02-11T07:50:11.506Z,96707.00
2023-02-11T07:53:19.750Z,96724.59
2023-02-11T07:56:29.033Z,96725.97
2023-02-11T07:59:38.818Z,96730.75
2023-02-11T08:02:46.943Z,96724.78
2023-02-11T08:05:55.196Z,96710.19
2023-02-11T08:09:09.547Z,96702.97
2023-02-11T08:12:17.818Z,96696.91
2023-02-11T08:15:27.411Z,96691.16
2023-02-11T08:18:37.203Z,96680.38
2023-02-11T08:21:47.676Z,96660.88
2023-02-11T08:24:58.364Z,96655.19
2023-02-11T08:28:06.831Z,96660.78
2023-02-11T08:31:19.349Z,96661.13
2023-02-11T08:34:27.858Z,96657.66
2023-02-11T08:37:36.241Z,96669.59
2023-02-11T08:40:44.386Z,96671.28
2023-02-11T08:43:52.555Z,96677.25
2023-02-11T08:47:02.056Z,96675.59
2023-02-11T08:50:11.123Z,96676.88
2023-02-11T08:53:19.729Z,96676.34
2023-02-11T08:56:28.383Z,96685.63
2023-02-11T08:59:37.088Z,96705.28
2023-02-11T09:02:46.815Z,96706.44
2023-02-11T09:05:55.304Z,96708.09
2023-02-11T09:09:03.808Z,96709.63
2023-02-11T09:12:11.945Z,96712.44
2023-02-11T09:15:20.134Z,96702.38
2023-02-11T09:18:29.719Z,96691.44
2023-02-11T09:21:38.572Z,96701.97
2023-02-11T09:24:47.264Z,96694.13
2023-02-11T09:27:55.751Z,96683.84
2023-02-11T09:31:07.601Z,96668.78
2023-02-11T09:34:17.384Z,96653.38
2023-02-11T09:37:25.587Z,96656.22
2023-02-11T09:40:35.136Z,96645.00
2023-02-11T09:43:49.217Z,96654.75
2023-02-11T09:47:02.796Z,96660.84
2023-02-11T09:50:19.424Z,96656.72
2023-02-11T09:53:31.158Z,96669.00
2023-02-11T09:56:39.537Z,96662.13
2023-02-11T09:59:49.321Z,96652.91
2023-02-11T10:03:29.757Z,96645.47
2023-02-11T10:06:48.322Z,96632.88
2023-02-11T10:10:19.334Z,96621.91
2023-02-11T10:13:56.562Z,96626.84
2023-02-11T10:17:22.910Z,96623.25
2023-02-11T10:20:38.527Z,96619.16
2023-02-11T10:23:53.795Z,96632.38
2023-02-11T10:27:12.935Z,96636.75
2023-02-11T10:30:31.032Z,96636.78
2023-02-11T10:33:47.499Z,96629.88
2023-02-11T10:36:56.010Z,96628.19
2023-02-11T10:40:08.185Z,96628.69
2023-02-11T10:43:20.323Z,96629.81
2023-02-11T10:46:35.123Z,96618.22
2023-02-11T10:49:45.370Z,96611.22
2023-02-11T10:52:53.755Z,96615.72
2023-02-11T10:56:06.260Z,96605.81
2023-02-11T10:59:24.999Z,96608.06
2023-02-11T11:02:38.799Z,96615.50
2023-02-11T11:05:52.836Z,96609.16
2023-02-11T11:09:01.182Z,96589.75
2023-02-11T11:17:44.296Z,96599.25
2023-02-11T11:21:00.806Z,96596.00
2023-02-11T11:24:20.841Z,96591.28
2023-02-11T11:27:30.233Z,96596.84
2023-02-11T11:30:44.014Z,96582.47
2023-02-11T11:33:57.982Z,96590.03
2023-02-11T11:37:16.299Z,96584.28
2023-02-11T11:40:28.847Z,96581.94
2023-02-11T11:43:38.246Z,96574.56
2023-02-11T11:46:50.427Z,96579.28
2023-02-11T11:50:28.666Z,96564.25
2023-02-11T11:53:45.281Z,96567.84
2023-02-11T11:57:03.439Z,96581.91
2023-02-11T12:00:20.893Z,96574.53
2023-02-11T12:04:15.417Z,96577.75
2023-02-11T12:07:42.378Z,96583.72
2023-02-11T12:11:08.487Z,96586.22
2023-02-11T12:14:31.159Z,96585.38
2023-02-11T12:18:03.144Z,96583.31
2023-02-11T12:21:30.713Z,96585.16
2023-02-11T12:25:21.618Z,96576.72
2023-02-11T12:28:45.250Z,96571.19
2023-02-11T12:32:13.180Z,96569.84
2023-02-11T12:35:38.401Z,96558.66
2023-02-11T12:39:11.689Z,96561.97
2023-02-11T12:42:56.463Z,96547.44
2023-02-11T12:46:35.043Z,96546.63
2023-02-11T12:50:09.050Z,96532.72
2023-02-11T12:53:55.180Z,96531.16
2023-02-11T12:57:11.224Z,96540.28
2023-02-11T13:00:26.529Z,96537.56
2023-02-11T13:03:43.940Z,96535.22
2023-02-11T13:06:58.866Z,96536.84
2023-02-11T13:10:29.827Z,96535.47
2023-02-11T13:14:17.808Z,96535.72
2023-02-11T13:17:38.730Z,96521.06
2023-02-11T13:20:55.318Z,96517.19
2023-02-11T13:24:25.560Z,96509.28
2023-02-11T13:27:46.488Z,96509.31
2023-02-11T13:31:03.389Z,96502.94
2023-02-11T13:35:00.756Z,96500.97
2023-02-11T13:38:29.969Z,96504.88
2023-02-11T13:41:52.464Z,96500.66
2023-02-11T13:45:28.621Z,96503.66
2023-02-11T13:48:49.307Z,96489.50
2023-02-11T13:52:01.848Z,96497.09
2023-02-11T13:55:23.835Z,96500.47
2023-02-11T13:58:40.197Z,96508.88
2023-02-11T14:02:42.566Z,96501.59
2023-02-11T14:06:35.315Z,96492.81
2023-02-11T14:09:57.351Z,96498.41
2023-02-11T14:13:25.675Z,96482.31
2023-02-11T14:16:38.498Z,96493.19
2023-02-11T14:19:50.598Z,96489.94
2023-02-11T14:23:06.012Z,96485.44
2023-02-11T14:26:43.969Z,96483.78
2023-02-11T14:30:15.476Z,96493.81
2023-02-11T14:33:52.196Z,96498.34
2023-02-11T14:37:32.782Z,96496.13
2023-02-11T14:40:55.510Z,96508.84
2023-02-11T14:44:13.882Z,96521.81
2023-02-11T14:47:30.360Z,96516.56
2023-02-11T14:50:46.490Z,96517.81
2023-02-11T14:54:01.657Z,96522.69
2023-02-11T14:57:19.710Z,96521.47
2023-02-11T15:00:29.996Z,96520.22
2023-02-11T15:04:06.887Z,96529.97
2023-02-11T15:07:54.601Z,96520.22
2023-02-11T15:11:15.172Z,96521.19
2023-02-11T15:14:27.129Z,96508.50
2023-02-11T15:17:38.266Z,96510.16
2023-02-11T15:20:46.865Z,96505.44
2023-02-11T15:24:07.645Z,96514.88
2023-02-11T15:28:34.172Z,96524.38
2023-02-11T15:31:46.266Z,96534.97
2023-02-11T15:34:58.242Z,96525.50
2023-02-11T15:38:08.540Z,96525.06
2023-02-11T15:41:40.284Z,96530.25
2023-02-11T15:44:56.404Z,96534.13
2023-02-11T15:48:15.758Z,96538.88
2023-02-11T15:51:35.798Z,96537.75
2023-02-11T15:55:03.051Z,96537.63
2023-02-11T15:58:20.897Z,96541.66
2023-02-11T16:01:41.128Z,96540.78
2023-02-11T16:04:57.761Z,96543.81
2023-02-11T16:08:31.869Z,96541.31
2023-02-11T16:12:05.422Z,96546.25
2023-02-11T16:16:10.679Z,96545.00
2023-02-11T16:19:28.179Z,96563.88
2023-02-11T16:22:41.508Z,96580.25
2023-02-11T16:26:08.675Z,96582.66
2023-02-11T16:29:38.481Z,96581.53
2023-02-11T16:33:16.421Z,96583.19
2023-02-11T16:36:34.770Z,96592.09
2023-02-11T16:40:01.207Z,96585.78
2023-02-11T16:43:11.567Z,96593.81
2023-02-11T16:46:20.084Z,96589.63
2023-02-11T16:49:32.843Z,96596.69
2023-02-11T16:52:42.345Z,96594.16
2023-02-11T16:55:52.619Z,96595.75
2023-02-11T16:59:02.587Z,96596.53
2023-02-11T17:02:18.348Z,96594.25
2023-02-11T17:05:27.163Z,96602.91
2023-02-11T17:08:35.653Z,96609.88
2023-02-11T17:11:44.317Z,96614.56
2023-02-11T17:14:54.244Z,96613.63
2023-02-11T17:18:02.923Z,96619.63
2023-02-11T17:21:11.153Z,96625.38
2023-02-11T17:24:21.852Z,96630.31
2023-02-11T17:27:30.192Z,96641.91
2023-02-11T17:30:42.213Z,96656.19
2023-02-11T17:33:50.502Z,96659.13
2023-02-11T17:37:00.134Z,96660.66
2023-02-11T17:40:10.296Z,96667.13
2023-02-11T17:43:18.422Z,96661.34
2023-02-11T17:46:29.265Z,96675.09
2023-02-11T17:49:37.528Z,96672.88
2023-02-11T17:52:46.075Z,96679.34
2023-02-11T17:55:56.311Z,96680.50
2023-02-11T17:59:06.516Z,96687.47
2023-02-11T18:02:16.229Z,96688.94
2023-02-11T18:05:26.635Z,96675.66
2023-02-11T18:08:35.842Z,96671.94
2023-02-11T18:11:44.165Z,96684.59
2023-02-11T18:14:55.550Z,96682.72
2023-02-11T18:18:07.147Z,96690.25
2023-02-11T18:21:18.338Z,96688.69
2023-02-11T18:24:26.664Z,96684.78
2023-02-11T18:27:36.304Z,96688.69
2023-02-11T18:30:44.864Z,96692.97
2023-02-11T18:33:55.265Z,96683.38
2023-02-11T18:37:03.637Z,96687.91
2023-02-11T18:40:14.222Z,96698.38
2023-02-11T18:43:22.630Z,96699.19
2023-02-11T18:46:31.466Z,96704.75
2023-02-11T18:49:41.228Z,96700.97
2023-02-11T18:52:49.602Z,96699.22
2023-02-11T18:55:57.960Z,96707.25
2023-02-11T18:59:06.596Z,96703.94
2023-02-11T19:02:14.971Z,96700.31
2023-02-11T19:05:26.093Z,96702.72
2023-02-11T19:08:34.526Z,96700.84
2023-02-11T19:11:49.731Z,96709.47
2023-02-11T19:15:00.487Z,96699.59
2023-02-11T19:18:08.993Z,96703.13
2023-02-11T19:21:20.508Z,96706.38
2023-02-11T19:24:31.143Z,96704.41
2023-02-11T19:27:41.735Z,96708.50
2023-02-11T19:30:50.307Z,96715.22
2023-02-11T19:33:58.841Z,96711.88
2023-02-11T19:37:10.743Z,96702.00
2023-02-11T19:40:21.161Z,96702.84
2023-02-11T19:43:29.752Z,96690.03
2023-02-11T19:46:41.020Z,96695.16
2023-02-11T19:49:49.502Z,96689.69
2023-02-11T19:52:59.268Z,96690.72
2023-02-11T19:56:08.431Z,96695.88
2023-02-11T19:59:17.337Z,96687.38
2023-02-11T20:02:25.816Z,96694.75
2023-02-11T20:05:34.515Z,96692.25
2023-02-11T20:08:45.488Z,96702.19
2023-02-11T20:11:53.728Z,96699.25
2023-02-11T20:15:01.874Z,96703.13
2023-02-11T20:18:10.087Z,96710.78
2023-02-11T20:21:21.795Z,96711.31
2023-02-11T20:24:31.472Z,96707.31
2023-02-11T20:27:40.253Z,96709.00
2023-02-11T20:30:57.940Z,96713.91
2023-02-11T20:34:06.743Z,96715.97
2023-02-11T20:37:15.234Z,96724.88
2023-02-11T20:40:25.218Z,96734.34
2023-02-11T20:43:35.266Z,96725.16
2023-02-11T20:46:47.069Z,96731.03
2023-02-11T20:49:56.274Z,96732.53
2023-02-11T20:53:04.694Z,96727.06
2023-02-11T20:56:14.611Z,96719.50
2023-02-11T20:59:23.504Z,96723.53
2023-02-11T21:02:31.941Z,96721.41
2023-02-11T21:05:41.295Z,96721.53
2023-02-11T21:08:50.047Z,96729.31
2023-02-11T21:12:00.523Z,96727.75
2023-02-11T21:15:10.456Z,96727.34
2023-02-11T21:18:18.679Z,96725.66
2023-02-11T21:21:27.136Z,96728.03
2023-02-11T21:24:35.385Z,96721.84
2023-02-11T21:27:45.186Z,96733.41
2023-02-11T21:30:54.152Z,96735.72
2023-02-11T21:34:02.686Z,96739.72
2023-02-11T21:37:11.212Z,96728.47
2023-02-11T21:40:23.214Z,96729.00
2023-02-11T21:43:34.181Z,96719.56
2023-02-11T21:46:42.662Z,96721.22
2023-02-11T21:49:51.108Z,96719.22
2023-02-11T21:52:59.507Z,96716.06
2023-02-11T21:56:11.716Z,96717.41
2023-02-11T21:59:21.339Z,96710.34
2023-02-11T22:02:29.534Z,96706.47
2023-02-11T22:05:41.614Z,96707.41
2023-02-11T22:08:51.039Z,96708.34
2023-02-11T22:11:59.405Z,96708.56
2023-02-11T22:15:10.715Z,96709.50
2023-02-11T22:18:18.839Z,96713.81
2023-02-11T22:21:29.123Z,96715.91
2023-02-11T22:24:37.360Z,96717.03
2023-02-11T22:27:45.649Z,96723.38
2023-02-11T22:30:57.228Z,96731.88
2023-02-11T22:34:06.749Z,96732.22
2023-02-11T22:37:15.141Z,96724.81
2023-02-11T22:40:23.915Z,96726.41
2023-02-11T22:43:32.154Z,96736.09
2023-02-11T22:46:41.904Z,96744.56
2023-02-11T22:49:50.191Z,96745.31
2023-02-11T22:52:59.545Z,96741.75
2023-02-11T22:56:15.047Z,96747.84
2023-02-11T22:59:23.880Z,96750.13
2023-02-11T23:02:34.663Z,96743.72
2023-02-11T23:05:43.928Z,96735.63
2023-02-11T23:08:52.544Z,96744.22
2023-02-11T23:12:00.945Z,96749.38
2023-02-11T23:15:09.775Z,96758.59
2023-02-11T23:18:19.379Z,96772.66
2023-02-11T23:21:31.787Z,96769.97
2023-02-11T23:24:40.095Z,96773.56
2023-02-11T23:27:48.349Z,96773.91
2023-02-11T23:30:57.262Z,96770.84
2023-02-11T23:34:08.671Z,96770.41
2023-02-11T23:37:17.142Z,96760.63
2023-02-11T23:40:25.527Z,96754.84
2023-02-11T23:43:33.903Z,96758.59
2023-02-11T23:46:42.372Z,96774.69
2023-02-11T23:49:52.198Z,96778.06
2023-02-11T23:53:00.332Z,96773.81
2023-02-11T23:56:11.608Z,96777.28
2023-02-11T23:59:19.775Z,96777.19
